Time;durP1;ratioP1;P1;durP2;ratioP2;P2;SDS_P1;SDS_P2;PMS_P1;PMS_P2;Temp;Humidity;BMP_temperature;BMP_pressure;BME280_temperature;BME280_humidity;BME280_pressure;Samples;Min_cycle;Max_cycle;Signal;HPM_P1;HPM_P2
2023/08/09 06:00:43;;;;;;;7.63;6.43;;;;;;;;;;10574441;22;1563057;-84
2023/08/09 06:06:00;;;;;;;5.78;4.88;;;;;;;;;;10537410;28;20052;-84
2023/08/09 06:11:03;;;;;;;3.22;2.47;;;;;;;;;;10538172;28;20115;-85
2023/08/09 06:16:09;;;;;;;5.47;4.10;;;;;;;;;;10552697;28;20043;-84
2023/08/09 06:21:10;;;;;;;4.93;4.40;;;;;;;;;;10534929;28;20027;-83
2023/08/09 06:26:13;;;;;;;4.20;3.80;;;;;;;;;;10552280;28;20020;-85
2023/08/09 06:31:16;;;;;;;6.18;5.57;;;;;;;;;;10533686;28;20048;-84
2023/08/09 06:36:18;;;;;;;6.50;5.90;;;;;;;;;;10523829;28;20089;-85
2023/08/09 06:41:25;;;;;;;11.38;10.07;;;;;;;;;;10515748;28;20104;-87
2023/08/09 06:46:27;;;;;;;6.22;5.53;;;;;;;;;;10547820;28;20032;-83
2023/08/09 06:51:28;;;;;;;20.75;16.48;;;;;;;;;;10537727;28;20119;-84
2023/08/09 06:56:30;;;;;;;10.23;9.23;;;;;;;;;;10522967;28;20471;-84
2023/08/09 07:01:31;;;;;;;7.25;5.88;;;;;;;;;;10504197;28;20036;-85
2023/08/09 07:06:32;;;;;;;5.30;4.75;;;;;;;;;;10516392;28;20100;-86
2023/08/09 07:11:39;;;;;;;7.68;6.90;;;;;;;;;;10516145;28;20040;-82
2023/08/09 07:16:40;;;;;;;8.77;6.88;;;;;;;;;;10517574;28;20024;-81
2023/08/09 07:21:41;;;;;;;8.52;7.63;;;;;;;;;;10523098;28;20043;-82
2023/08/09 07:26:42;;;;;;;9.35;8.32;;;;;;;;;;10514862;28;20031;-82
2023/08/09 07:31:44;;;;;;;10.30;8.98;;;;;;;;;;10510951;28;20028;-83
2023/08/09 07:36:45;;;;;;;10.25;8.65;;;;;;;;;;10499715;28;20115;-83
2023/08/09 07:41:46;;;;;;;11.95;9.70;;;;;;;;;;10498603;28;20024;-83
2023/08/09 07:46:48;;;;;;;10.15;8.35;;;;;;;;;;10496774;28;20047;-82
2023/08/09 07:51:50;;;;;;;10.05;9.05;;;;;;;;;;10500797;28;20117;-81
2023/08/09 07:56:52;;;;;;;8.43;7.40;;;;;;;;;;10513587;28;20021;-81
2023/08/09 08:01:53;;;;;;;8.23;7.28;;;;;;;;;;10481527;28;20039;-81
2023/08/09 08:06:55;;;;;;;9.40;7.30;;;;;;;;;;10479042;28;20090;-82
2023/08/09 08:11:56;;;;;;;7.03;6.32;;;;;;;;;;10495142;28;20100;-81
2023/08/09 08:16:57;;;;;;;7.15;5.82;;;;;;;;;;10494680;28;20119;-80
2023/08/09 08:21:58;;;;;;;8.95;6.40;;;;;;;;;;10495602;28;20127;-81
2023/08/09 08:27:45;;;;;;;7.68;5.93;;;;;;;;;;10496343;28;20039;-83
2023/08/09 08:32:47;;;;;;;6.40;5.80;;;;;;;;;;10494658;28;20030;-81
2023/08/09 08:37:49;;;;;;;8.68;6.38;;;;;;;;;;10495653;28;20072;-81
2023/08/09 08:42:51;;;;;;;7.68;6.47;;;;;;;;;;10493538;28;20111;-81
2023/08/09 08:47:52;;;;;;;6.35;5.60;;;;;;;;;;10493948;28;20024;-81
2023/08/09 08:52:58;;;;;;;5.68;5.18;;;;;;;;;;10493846;28;20171;-81
2023/08/09 08:58:00;;;;;;;6.25;5.22;;;;;;;;;;10498306;28;20071;-83
2023/08/09 09:03:01;;;;;;;5.40;4.90;;;;;;;;;;10514306;28;20090;-81
2023/08/09 09:08:02;;;;;;;6.32;4.68;;;;;;;;;;10497651;28;20055;-80
2023/08/09 09:13:05;;;;;;;4.93;4.43;;;;;;;;;;10497754;28;20027;-81
2023/08/09 09:18:07;;;;;;;4.95;4.45;;;;;;;;;;10497307;28;20078;-82
2023/08/09 09:23:08;;;;;;;5.72;4.85;;;;;;;;;;10496597;28;20021;-81
2023/08/09 09:28:22;;;;;;;8.02;4.40;;;;;;;;;;10495949;28;20087;-83
2023/08/09 09:33:33;;;;;;;6.18;4.38;;;;;;;;;;10497842;28;20024;-83
2023/08/09 09:38:34;;;;;;;4.10;3.70;;;;;;;;;;10497008;28;20032;-83
2023/08/09 09:43:39;;;;;;;4.85;3.72;;;;;;;;;;10496878;28;20036;-83
2023/08/09 09:48:40;;;;;;;6.10;4.10;;;;;;;;;;10497910;28;20029;-83
2023/08/09 09:53:41;;;;;;;5.20;3.67;;;;;;;;;;10498027;28;20048;-83
2023/08/09 09:58:43;;;;;;;6.18;5.05;;;;;;;;;;10496376;28;20150;-82
2023/08/09 10:03:45;;;;;;;4.85;4.00;;;;;;;;;;10496164;28;20035;-82
2023/08/09 10:08:47;;;;;;;7.55;6.05;;;;;;;;;;10527499;28;20052;-83
2023/08/09 10:13:50;;;;;;;6.40;5.72;;;;;;;;;;10502567;28;20032;-83
2023/08/09 10:18:57;;;;;;;9.45;7.68;;;;;;;;;;10518049;28;20078;-82
2023/08/09 10:24:17;;;;;;;10.35;8.73;;;;;;;;;;10498763;28;20040;-83
2023/08/09 10:29:18;;;;;;;;;;;;;;;;;;10516879;28;20111;-82
2023/08/09 10:34:20;;;;;;;6.32;5.65;;;;;;;;;;10502074;28;19914;-83
2023/08/09 10:39:21;;;;;;;9.77;8.25;;;;;;;;;;10504252;28;20039;-85
2023/08/09 10:44:32;;;;;;;8.73;7.57;;;;;;;;;;10503494;28;20028;-82
2023/08/09 10:49:34;;;;;;;9.27;8.13;;;;;;;;;;10501979;28;20462;-82
2023/08/09 10:54:36;;;;;;;9.15;8.07;;;;;;;;;;10504280;28;20176;-82
2023/08/09 10:59:38;;;;;;;11.88;10.65;;;;;;;;;;10506229;28;20108;-81
2023/08/09 11:04:39;;;;;;;10.07;9.05;;;;;;;;;;10502506;28;20029;-82
2023/08/09 11:09:41;;;;;;;10.23;9.23;;;;;;;;;;10503785;28;20024;-82
2023/08/09 11:14:45;;;;;;;11.50;8.40;;;;;;;;;;10504218;28;20536;-83
2023/08/09 11:19:46;;;;;;;9.85;8.68;;;;;;;;;;10502211;28;20173;-83
2023/08/09 11:24:49;;;;;;;9.60;8.55;;;;;;;;;;10502272;28;20119;-84
2023/08/09 11:29:50;;;;;;;11.02;9.93;;;;;;;;;;10500018;28;20095;-84
2023/08/09 11:34:51;;;;;;;11.45;10.32;;;;;;;;;;10516967;28;20066;-84
2023/08/09 11:39:52;;;;;;;9.88;8.88;;;;;;;;;;10496059;28;20517;-84
2023/08/09 11:44:53;;;;;;;8.82;7.93;;;;;;;;;;10497181;28;20025;-82
2023/08/09 11:49:54;;;;;;;8.70;7.80;;;;;;;;;;10501038;28;20132;-83
2023/08/09 11:54:55;;;;;;;6.93;6.20;;;;;;;;;;10501875;28;20056;-83
2023/08/09 12:00:00;;;;;;;6.53;5.85;;;;;;;;;;10511313;22;20055;-84
2023/08/09 12:05:08;;;;;;;7.72;6.90;;;;;;;;;;10511143;28;20031;-84
2023/08/09 12:10:20;;;;;;;6.05;5.45;;;;;;;;;;10510627;28;20080;-84
2023/08/09 12:21:50;;;;;;;4.95;4.28;;;;;;;;;;10503753;28;20028;-85
2023/08/09 12:32:29;;;;;;;6.10;4.88;;;;;;;;;;10515786;28;20069;-85
2023/08/09 12:38:10;;;;;;;6.95;3.85;;;;;;;;;;10418202;28;20037;-85
2023/08/09 13:12:24;;;;;;;4.45;2.70;;;;;;;;;;10318377;28;20487;-86
2023/08/09 13:18:03;;;;;;;3.83;2.90;;;;;;;;;;10359987;28;20034;-87
2023/08/09 13:23:36;;;;;;;3.72;2.40;;;;;;;;;;10211373;29;20447;-85
2023/08/09 13:28:48;;;;;;;4.80;3.70;;;;;;;;;;10196778;29;20111;-86
2023/08/09 13:51:46;;;;;;;3.78;2.85;;;;;;;;;;10285925;29;20047;-88
2023/08/09 14:08:28;;;;;;;5.00;2.30;;;;;;;;;;10380770;28;20034;-87
2023/08/09 14:20:05;;;;;;;3.35;2.55;;;;;;;;;;10518180;28;20405;-88
2023/08/09 14:25:25;;;;;;;4.40;2.35;;;;;;;;;;10512552;28;20056;-86
2023/08/09 14:36:10;;;;;;;5.00;2.97;;;;;;;;;;10340936;28;20109;-87
2023/08/09 15:11:07;;;;;;;3.47;2.60;;;;;;;;;;10262725;28;20048;-88
2023/08/09 15:27:21;;;;;;;5.30;3.20;;;;;;;;;;10512461;28;20036;-83
2023/08/09 15:38:44;;;;;;;3.63;2.72;;;;;;;;;;10510042;28;20023;-85
2023/08/09 15:49:57;;;;;;;4.43;2.92;;;;;;;;;;10383553;28;20081;-86
2023/08/09 16:12:47;;;;;;;3.35;2.42;;;;;;;;;;10372330;28;20034;-87
2023/08/09 16:18:06;;;;;;;5.03;2.58;;;;;;;;;;10403382;28;20432;-86
2023/08/09 17:15:15;;;;;;;4.15;2.30;;;;;;;;;;10475261;28;20402;-86
2023/08/09 17:32:37;;;;;;;3.90;1.90;;;;;;;;;;10337214;28;20026;-83
